createdAt,value
2023-09-26T00:00:59.619Z,10.06
2023-09-26T00:01:59.590Z,10.15
2023-09-26T00:02:59.553Z,10.06
2023-09-26T00:03:59.591Z,10.04
2023-09-26T00:04:59.572Z,9.97
2023-09-26T00:05:59.504Z,10.01
2023-09-26T00:06:59.502Z,9.79
2023-09-26T00:08:00.475Z,9.83
2023-09-26T00:08:59.450Z,9.75
2023-09-26T00:09:59.519Z,9.81
2023-09-26T00:10:59.433Z,9.83
2023-09-26T00:11:59.422Z,9.85
2023-09-26T00:12:59.449Z,9.83
2023-09-26T00:13:59.398Z,9.76
2023-09-26T00:14:59.409Z,9.88
2023-09-26T00:15:59.472Z,9.89
2023-09-26T00:16:59.397Z,9.81
2023-09-26T00:17:59.401Z,9.78
2023-09-26T00:18:59.403Z,9.88
2023-09-26T00:19:59.365Z,9.86
2023-09-26T00:20:59.338Z,9.81
2023-09-26T00:21:59.381Z,9.81
2023-09-26T00:22:59.333Z,9.81
2023-09-26T00:23:59.342Z,9.81
2023-09-26T00:24:59.360Z,9.82
2023-09-26T00:25:59.292Z,9.81
2023-09-26T00:26:59.289Z,9.83
2023-09-26T00:27:59.322Z,9.81
2023-09-26T00:28:59.282Z,9.82
2023-09-26T00:29:59.258Z,9.83
2023-09-26T00:30:59.245Z,9.86
2023-09-26T00:31:59.254Z,9.83
2023-09-26T00:32:59.341Z,9.83
2023-09-26T00:33:59.278Z,9.82
2023-09-26T00:34:59.210Z,9.89
2023-09-26T00:35:59.234Z,9.91
2023-09-26T00:36:59.326Z,10.00
2023-09-26T00:37:59.474Z,9.94
2023-09-26T00:38:59.164Z,9.96
2023-09-26T00:39:59.167Z,9.99
2023-09-26T00:40:59.146Z,9.94
2023-09-26T00:41:59.154Z,9.94
2023-09-26T00:42:59.208Z,9.91
2023-09-26T00:43:59.161Z,10.01
2023-09-26T00:44:59.157Z,9.99
2023-09-26T00:45:59.143Z,9.83
2023-09-26T00:46:59.233Z,9.94
2023-09-26T00:47:59.151Z,9.88
2023-09-26T00:48:59.082Z,9.89
2023-09-26T00:49:59.064Z,9.82
2023-09-26T00:50:59.055Z,9.78
2023-09-26T00:51:59.100Z,9.83
2023-09-26T00:52:59.030Z,9.75
2023-09-26T00:53:59.016Z,9.73
2023-09-26T00:54:59.052Z,9.68
2023-09-26T00:55:59.033Z,9.64
2023-09-26T00:56:59.000Z,9.49
2023-09-26T00:57:59.026Z,9.38
2023-09-26T00:58:58.963Z,9.32
2023-09-26T00:59:58.963Z,9.32
2023-09-26T01:00:58.982Z,9.27
2023-09-26T01:01:59.005Z,9.34
2023-09-26T01:02:59.055Z,9.24
2023-09-26T01:03:59.082Z,9.30
2023-09-26T01:04:58.907Z,9.23
2023-09-26T01:05:58.925Z,9.39
2023-09-26T01:06:59.030Z,9.30
2023-09-26T01:07:58.882Z,9.34
2023-09-26T01:08:58.891Z,9.32
2023-09-26T01:09:59.885Z,9.34
2023-09-26T01:10:58.869Z,9.39
2023-09-26T01:11:58.832Z,9.28
2023-09-26T01:12:58.843Z,9.34
2023-09-26T01:13:58.823Z,9.39
2023-09-26T01:14:58.828Z,9.27
2023-09-26T01:15:58.927Z,9.20
2023-09-26T01:16:58.838Z,9.27
2023-09-26T01:17:59.825Z,9.15
2023-09-26T01:18:58.871Z,9.25
2023-09-26T01:19:58.776Z,9.12
2023-09-26T01:20:58.762Z,9.13
2023-09-26T01:21:58.760Z,9.10
2023-09-26T01:22:58.746Z,8.97
2023-09-26T01:23:58.720Z,8.91
2023-09-26T01:24:58.772Z,8.79
2023-09-26T01:25:58.695Z,8.72
2023-09-26T01:26:58.694Z,8.78
2023-09-26T01:27:58.689Z,8.78
2023-09-26T01:28:58.680Z,8.91
2023-09-26T01:29:58.669Z,8.91
2023-09-26T01:30:58.672Z,8.86
2023-09-26T01:31:58.648Z,9.04
2023-09-26T01:32:58.657Z,9.01
2023-09-26T01:33:58.664Z,9.01
2023-09-26T01:34:58.606Z,9.18
2023-09-26T01:35:58.599Z,9.15
2023-09-26T01:36:58.611Z,9.18
2023-09-26T01:37:58.577Z,9.28
2023-09-26T01:38:58.599Z,9.25
2023-09-26T01:39:58.563Z,9.28
2023-09-26T01:40:58.548Z,9.31
2023-09-26T01:41:58.543Z,9.28
2023-09-26T01:42:58.575Z,9.31
2023-09-26T01:43:58.537Z,9.18
2023-09-26T01:44:58.518Z,9.15
2023-09-26T01:45:58.579Z,9.23
2023-09-26T01:46:58.612Z,9.15
2023-09-26T01:47:58.521Z,9.04
2023-09-26T01:48:58.502Z,9.09
2023-09-26T01:49:58.450Z,9.15
2023-09-26T01:50:58.449Z,8.93
2023-09-26T01:51:58.481Z,9.09
2023-09-26T01:52:58.446Z,8.99
2023-09-26T01:53:58.432Z,9.05
2023-09-26T01:54:58.420Z,9.09
2023-09-26T01:55:58.398Z,8.96
2023-09-26T01:56:58.408Z,8.99
2023-09-26T01:57:58.457Z,8.99
2023-09-26T01:58:58.363Z,8.96
2023-09-26T01:59:58.360Z,8.96
2023-09-26T02:00:58.385Z,9.09
2023-09-26T02:01:58.386Z,9.12
2023-09-26T02:02:58.384Z,9.04
2023-09-26T02:03:58.336Z,9.09
2023-09-26T02:04:58.321Z,9.04
2023-09-26T02:05:58.387Z,9.10
2023-09-26T02:06:58.346Z,9.05
2023-09-26T02:07:58.279Z,9.06
2023-09-26T02:08:58.275Z,9.12
2023-09-26T02:09:58.305Z,9.09
2023-09-26T02:10:58.266Z,9.12
2023-09-26T02:11:58.252Z,9.15
2023-09-26T02:12:58.362Z,9.09
2023-09-26T02:13:58.264Z,9.09
2023-09-26T02:14:58.201Z,9.15
2023-09-26T02:15:58.324Z,9.06
2023-09-26T02:16:58.242Z,9.16
2023-09-26T02:17:58.229Z,9.02
2023-09-26T02:18:58.219Z,9.05
2023-09-26T02:19:58.202Z,9.10
2023-09-26T02:20:58.165Z,9.10
2023-09-26T02:21:58.160Z,9.13
2023-09-26T02:22:58.122Z,9.10
2023-09-26T02:23:58.122Z,9.15
2023-09-26T02:24:58.204Z,9.15
2023-09-26T02:25:58.128Z,9.02
2023-09-26T02:26:58.111Z,9.01
2023-09-26T02:27:58.129Z,8.97
2023-09-26T02:28:58.076Z,8.96
2023-09-26T02:29:58.076Z,9.02
2023-09-26T02:30:58.078Z,9.04
2023-09-26T02:31:58.053Z,9.01
2023-09-26T02:32:58.091Z,8.96
2023-09-26T02:33:58.033Z,8.93
2023-09-26T02:34:58.021Z,8.93
2023-09-26T02:35:57.991Z,8.99
2023-09-26T02:36:58.037Z,8.97
2023-09-26T02:37:57.986Z,9.02
2023-09-26T02:38:57.996Z,8.91
2023-09-26T02:39:58.025Z,8.91
2023-09-26T02:40:57.948Z,8.93
2023-09-26T02:41:57.939Z,8.96
2023-09-26T02:42:57.957Z,8.94
2023-09-26T02:43:57.938Z,8.88
2023-09-26T02:44:57.900Z,8.86
2023-09-26T02:45:57.974Z,8.73
2023-09-26T02:46:57.890Z,8.68
2023-09-26T02:47:57.910Z,8.69
2023-09-26T02:48:57.896Z,8.73
2023-09-26T02:49:57.854Z,8.65
2023-09-26T02:50:57.833Z,8.69
2023-09-26T02:51:57.839Z,8.57
2023-09-26T02:52:57.835Z,8.57
2023-09-26T02:53:58.823Z,8.72
2023-09-26T02:54:57.857Z,8.68
2023-09-26T02:55:57.806Z,8.54
2023-09-26T02:56:57.779Z,8.62
2023-09-26T02:57:57.814Z,8.65
2023-09-26T02:58:57.761Z,8.57
2023-09-26T02:59:57.752Z,8.71
2023-09-26T03:00:57.826Z,8.62
2023-09-26T03:01:57.764Z,8.65
2023-09-26T03:02:57.776Z,8.57
2023-09-26T03:03:57.833Z,8.69
2023-09-26T03:04:57.689Z,8.63
2023-09-26T03:05:57.673Z,8.62
2023-09-26T03:06:57.741Z,8.54
2023-09-26T03:07:57.686Z,8.57
2023-09-26T03:08:57.644Z,8.55
2023-09-26T03:09:57.695Z,8.53
2023-09-26T03:10:57.630Z,8.62
2023-09-26T03:11:57.644Z,8.47
2023-09-26T03:12:57.620Z,8.55
2023-09-26T03:13:57.603Z,8.55
2023-09-26T03:14:57.587Z,8.58
2023-09-26T03:15:57.699Z,8.47
2023-09-26T03:16:57.654Z,8.51
2023-09-26T03:17:57.584Z,8.47
2023-09-26T03:18:57.565Z,8.51
2023-09-26T03:19:57.539Z,8.51
2023-09-26T03:20:57.567Z,8.54
2023-09-26T03:21:57.599Z,8.63
2023-09-26T03:22:57.518Z,8.58
2023-09-26T03:23:57.498Z,8.58
2023-09-26T03:24:57.534Z,8.51
2023-09-26T03:25:57.498Z,8.53
2023-09-26T03:26:57.476Z,8.48
2023-09-26T03:27:57.483Z,8.42
2023-09-26T03:28:57.448Z,8.22
2023-09-26T03:29:57.448Z,8.26
2023-09-26T03:30:57.564Z,8.11
2023-09-26T03:31:57.448Z,8.26
2023-09-26T03:32:57.490Z,8.29
2023-09-26T03:33:57.427Z,8.08
2023-09-26T03:34:57.396Z,8.29
2023-09-26T03:35:57.397Z,8.20
2023-09-26T03:36:57.463Z,8.14
2023-09-26T03:37:57.366Z,8.25
2023-09-26T03:38:57.365Z,8.14
2023-09-26T03:39:57.432Z,8.11
2023-09-26T03:40:57.331Z,8.26
2023-09-26T03:41:57.333Z,8.25
2023-09-26T03:42:57.370Z,8.18
2023-09-26T03:43:57.300Z,8.17
2023-09-26T03:44:57.304Z,8.10
2023-09-26T03:45:57.343Z,7.97
2023-09-26T03:46:57.291Z,8.00
2023-09-26T03:47:57.331Z,7.97
2023-09-26T03:48:57.285Z,7.99
2023-09-26T03:49:57.245Z,7.82
2023-09-26T03:50:57.225Z,7.81
2023-09-26T03:51:57.245Z,7.90
2023-09-26T03:52:57.197Z,7.92
2023-09-26T03:53:57.214Z,7.89
2023-09-26T03:54:57.232Z,7.81
2023-09-26T03:55:57.172Z,7.93
2023-09-26T03:56:57.158Z,7.90
2023-09-26T03:57:57.172Z,8.00
2023-09-26T03:58:57.164Z,7.87
2023-09-26T03:59:57.124Z,7.93
2023-09-26T04:00:57.176Z,8.11
2023-09-26T04:01:57.229Z,8.03
2023-09-26T04:02:57.179Z,7.90
2023-09-26T04:03:57.187Z,7.99
2023-09-26T04:04:57.086Z,8.03
2023-09-26T04:05:57.063Z,8.02
2023-09-26T04:06:57.070Z,8.02
2023-09-26T04:07:57.052Z,7.94
2023-09-26T04:08:57.037Z,7.93
2023-09-26T04:09:57.143Z,7.99
2023-09-26T04:10:57.011Z,7.84
2023-09-26T04:11:57.002Z,7.93
2023-09-26T04:12:57.021Z,7.94
2023-09-26T04:13:57.023Z,7.79
2023-09-26T04:14:56.961Z,7.78
2023-09-26T04:16:00.009Z,7.92
2023-09-26T04:16:57.971Z,7.85
2023-09-26T04:17:56.966Z,7.85
2023-09-26T04:18:57.045Z,7.89
2023-09-26T04:19:56.987Z,7.75
2023-09-26T04:20:56.905Z,7.79
2023-09-26T04:21:56.908Z,7.90
2023-09-26T04:22:56.885Z,7.77
2023-09-26T04:23:56.868Z,7.75
2023-09-26T04:24:56.888Z,7.72
2023-09-26T04:25:56.846Z,7.71
2023-09-26T04:26:56.861Z,7.60
2023-09-26T04:27:56.858Z,7.66
2023-09-26T04:28:56.828Z,7.58
2023-09-26T04:29:56.807Z,7.56
2023-09-26T04:30:56.897Z,7.56
2023-09-26T04:31:56.876Z,7.47
2023-09-26T04:32:56.804Z,7.56
2023-09-26T04:33:56.797Z,7.53
2023-09-26T04:34:56.743Z,7.55
2023-09-26T04:35:56.746Z,7.47
2023-09-26T04:36:56.831Z,7.40
2023-09-26T04:37:56.783Z,7.41
2023-09-26T04:38:56.698Z,7.38
2023-09-26T04:39:56.734Z,7.41
2023-09-26T04:40:56.703Z,7.42
2023-09-26T04:41:56.672Z,7.44
2023-09-26T04:42:56.668Z,7.42
2023-09-26T04:43:56.648Z,7.44
2023-09-26T04:44:56.655Z,7.34
2023-09-26T04:45:56.689Z,7.42
2023-09-26T04:46:56.661Z,7.42
2023-09-26T04:47:56.613Z,7.26
2023-09-26T04:48:56.600Z,7.40
2023-09-26T04:49:58.396Z,7.38
2023-09-26T04:50:56.565Z,7.38
2023-09-26T04:51:56.566Z,7.32
2023-09-26T04:52:56.565Z,7.40
2023-09-26T04:53:56.550Z,7.24
2023-09-26T04:54:56.532Z,7.27
2023-09-26T04:55:56.547Z,7.26
2023-09-26T04:56:56.512Z,7.24
2023-09-26T04:57:56.512Z,7.26
2023-09-26T04:58:56.530Z,7.16
2023-09-26T04:59:56.479Z,7.20
2023-09-26T05:00:56.480Z,7.07
2023-09-26T05:01:56.453Z,7.20
2023-09-26T05:02:56.534Z,7.13
2023-09-26T05:03:56.514Z,7.07
2023-09-26T05:04:56.458Z,6.97
2023-09-26T05:06:28.296Z,6.99
2023-09-26T05:06:56.400Z,7.13
2023-09-26T05:07:56.379Z,7.04
2023-09-26T05:08:56.382Z,7.02
2023-09-26T05:09:56.409Z,6.94
2023-09-26T05:10:56.357Z,6.95
2023-09-26T05:11:56.336Z,7.05
2023-09-26T05:12:58.880Z,7.02
2023-09-26T05:13:56.332Z,6.90
2023-09-26T05:14:56.299Z,7.02
2023-09-26T05:15:56.324Z,6.99
2023-09-26T05:16:56.340Z,7.07
2023-09-26T05:17:56.317Z,7.15
2023-09-26T05:18:56.288Z,7.15
2023-09-26T05:19:56.250Z,6.98
2023-09-26T05:20:56.231Z,7.04
2023-09-26T05:21:56.247Z,7.04
2023-09-26T05:22:56.241Z,6.90
2023-09-26T05:23:56.204Z,6.97
2023-09-26T05:24:56.184Z,7.01
2023-09-26T05:25:56.178Z,7.08
2023-09-26T05:26:56.181Z,7.01
2023-09-26T05:27:56.213Z,6.97
2023-09-26T05:28:56.147Z,7.01
2023-09-26T05:29:56.142Z,7.09
2023-09-26T05:30:56.178Z,7.17
2023-09-26T05:31:56.217Z,7.16
2023-09-26T05:32:58.003Z,7.23
2023-09-26T05:33:57.149Z,7.27
2023-09-26T05:34:56.076Z,7.27
2023-09-26T05:35:56.079Z,7.34
2023-09-26T05:36:56.174Z,7.22
2023-09-26T05:37:56.077Z,7.35
2023-09-26T05:38:56.040Z,7.37
2023-09-26T05:39:56.035Z,7.47
2023-09-26T05:40:56.050Z,7.44
2023-09-26T05:41:56.010Z,7.50
2023-09-26T05:42:56.046Z,7.62
2023-09-26T05:43:55.986Z,7.49
2023-09-26T05:44:55.981Z,7.52
2023-09-26T05:45:56.010Z,7.58
2023-09-26T05:46:56.057Z,7.67
2023-09-26T05:47:55.950Z,7.69
2023-09-26T05:48:55.932Z,7.78
2023-09-26T05:49:55.947Z,7.78
2023-09-26T05:50:55.912Z,7.74
2023-09-26T05:51:55.973Z,7.72
2023-09-26T05:52:55.894Z,7.84
2023-09-26T05:53:55.872Z,7.85
2023-09-26T05:54:55.917Z,7.90
2023-09-26T05:55:55.856Z,7.92
2023-09-26T05:56:55.847Z,7.92
2023-09-26T05:57:56.836Z,8.03
2023-09-26T05:58:55.812Z,8.00
2023-09-26T05:59:55.818Z,7.99
2023-09-26T06:00:55.830Z,8.00
2023-09-26T06:01:55.877Z,8.00
2023-09-26T06:02:55.818Z,8.14
2023-09-26T06:03:56.164Z,8.20
2023-09-26T06:04:55.835Z,8.12
2023-09-26T06:05:55.741Z,8.12
2023-09-26T06:06:55.760Z,8.21
2023-09-26T06:07:55.732Z,8.17
2023-09-26T06:08:56.111Z,8.28
2023-09-26T06:10:08.080Z,8.25
2023-09-26T06:10:57.702Z,8.37
2023-09-26T06:11:55.671Z,8.28
2023-09-26T06:12:55.702Z,8.26
2023-09-26T06:13:55.681Z,8.35
2023-09-26T06:14:55.627Z,8.44
2023-09-26T06:15:55.635Z,8.50
2023-09-26T06:16:55.652Z,8.48
2023-09-26T06:17:55.685Z,8.54
2023-09-26T06:18:55.638Z,8.53
2023-09-26T06:19:55.599Z,8.63
2023-09-26T06:20:55.573Z,8.71
2023-09-26T06:21:55.598Z,8.63
2023-09-26T06:22:55.578Z,8.66
2023-09-26T06:23:55.542Z,8.73
2023-09-26T06:24:55.557Z,8.66
2023-09-26T06:25:56.744Z,8.84
2023-09-26T06:26:56.512Z,8.81
2023-09-26T06:27:55.626Z,8.88
2023-09-26T06:28:55.487Z,8.88
2023-09-26T06:29:55.482Z,8.97
2023-09-26T06:30:55.677Z,9.04
2023-09-26T06:31:55.616Z,9.10
2023-09-26T06:32:55.533Z,9.13
2023-09-26T06:33:55.426Z,9.13
2023-09-26T06:34:55.445Z,9.23
2023-09-26T06:35:55.415Z,9.30
2023-09-26T06:36:55.421Z,9.42
2023-09-26T06:37:55.384Z,9.32
2023-09-26T06:38:55.395Z,9.57
2023-09-26T06:39:55.383Z,9.58
2023-09-26T06:40:55.369Z,9.63
2023-09-26T06:41:55.365Z,9.49
2023-09-26T06:42:55.371Z,9.53
2023-09-26T06:43:55.319Z,9.61
2023-09-26T06:44:56.322Z,9.58
2023-09-26T06:45:55.447Z,9.60
2023-09-26T06:46:55.376Z,9.67
2023-09-26T06:47:55.342Z,9.66
2023-09-26T06:48:55.300Z,9.71
2023-09-26T06:49:55.275Z,9.82
2023-09-26T06:50:55.289Z,9.85
2023-09-26T06:51:55.287Z,9.83
2023-09-26T06:52:55.244Z,9.89
2023-09-26T06:53:55.234Z,9.97
2023-09-26T06:54:55.219Z,9.93
2023-09-26T06:55:55.222Z,10.06
2023-09-26T06:56:55.198Z,9.99
2023-09-26T06:57:55.227Z,10.15
2023-09-26T06:58:55.577Z,10.19
2023-09-26T06:59:55.227Z,10.26
2023-09-26T07:00:55.296Z,10.22
2023-09-26T07:01:55.236Z,10.34
2023-09-26T07:02:55.149Z,10.32
2023-09-26T07:03:55.457Z,10.47
2023-09-26T07:04:55.287Z,10.44
2023-09-26T07:05:55.106Z,10.53
2023-09-26T07:06:55.102Z,10.66
2023-09-26T07:07:55.082Z,10.76
2023-09-26T07:08:55.116Z,10.66
2023-09-26T07:09:55.144Z,10.83
2023-09-26T07:10:55.061Z,10.78
2023-09-26T07:11:55.048Z,10.86
2023-09-26T07:12:55.090Z,10.91
2023-09-26T07:13:55.170Z,10.95
2023-09-26T07:14:55.036Z,11.01
2023-09-26T07:15:55.043Z,11.09
2023-09-26T07:16:55.083Z,11.02
2023-09-26T07:17:55.014Z,11.13
2023-09-26T07:18:55.213Z,11.14
2023-09-26T07:19:54.977Z,11.21
2023-09-26T07:20:54.969Z,11.13
2023-09-26T07:21:54.980Z,11.14
2023-09-26T07:22:54.955Z,11.27
2023-09-26T07:23:54.948Z,11.32
2023-09-26T07:24:54.954Z,11.36
2023-09-26T07:25:54.908Z,11.39
2023-09-26T07:26:54.906Z,11.41
2023-09-26T07:27:54.939Z,11.41
2023-09-26T07:28:54.918Z,11.41
2023-09-26T07:29:54.873Z,11.50
2023-09-26T07:30:54.952Z,11.53
2023-09-26T07:31:54.866Z,11.70
2023-09-26T07:32:54.921Z,11.61
2023-09-26T07:33:55.259Z,11.59
2023-09-26T07:34:54.817Z,11.62
2023-09-26T07:35:54.821Z,11.71
2023-09-26T07:36:54.825Z,11.70
2023-09-26T07:37:54.814Z,11.56
2023-09-26T07:38:54.774Z,11.70
2023-09-26T07:39:54.788Z,11.67
2023-09-26T07:40:54.806Z,11.70
2023-09-26T07:41:54.763Z,11.71
2023-09-26T07:42:54.810Z,11.62
2023-09-26T07:43:54.920Z,11.59
2023-09-26T07:44:54.724Z,11.65
2023-09-26T07:45:54.761Z,11.77
2023-09-26T07:46:54.741Z,11.85
2023-09-26T07:47:54.752Z,11.86
2023-09-26T07:48:54.737Z,11.94
2023-09-26T07:49:54.673Z,12.16
2023-09-26T07:50:54.674Z,12.15
2023-09-26T07:51:54.726Z,12.24
2023-09-26T07:52:54.640Z,12.29
2023-09-26T07:53:54.637Z,12.26
2023-09-26T07:54:54.650Z,12.24
2023-09-26T07:55:54.649Z,12.24
2023-09-26T07:56:54.617Z,12.16
2023-09-26T07:57:54.674Z,12.23
2023-09-26T07:58:54.578Z,12.24
2023-09-26T07:59:54.566Z,12.34
2023-09-26T08:00:55.022Z,12.39
2023-09-26T08:01:54.596Z,12.34
2023-09-26T08:02:54.603Z,12.37
2023-09-26T08:03:54.781Z,12.45
2023-09-26T08:04:54.678Z,12.51
2023-09-26T08:05:54.524Z,12.51
2023-09-26T08:06:54.519Z,12.59
2023-09-26T08:07:55.315Z,12.62
2023-09-26T08:08:54.487Z,12.78
2023-09-26T08:09:54.532Z,12.81
2023-09-26T08:10:54.463Z,12.87
2023-09-26T08:11:54.446Z,12.96
2023-09-26T08:12:54.536Z,12.99
2023-09-26T08:13:54.434Z,13.12
2023-09-26T08:14:54.446Z,13.12
2023-09-26T08:15:54.448Z,13.25
2023-09-26T08:16:54.454Z,13.29
2023-09-26T08:17:54.419Z,13.43
2023-09-26T08:18:54.488Z,13.56
2023-09-26T08:19:54.395Z,13.52
2023-09-26T08:20:54.365Z,13.59
2023-09-26T08:21:54.396Z,13.61
2023-09-26T08:22:54.366Z,13.59
2023-09-26T08:23:54.354Z,13.65
2023-09-26T08:24:54.330Z,13.76
2023-09-26T08:25:54.310Z,13.77
2023-09-26T08:26:54.308Z,13.74
2023-09-26T08:27:54.332Z,13.79
2023-09-26T08:28:54.399Z,13.83
2023-09-26T08:29:54.296Z,13.87
2023-09-26T08:30:54.389Z,13.77
2023-09-26T08:31:54.299Z,13.79
2023-09-26T08:32:54.264Z,13.87
2023-09-26T08:33:54.466Z,13.88
2023-09-26T08:34:54.294Z,13.99
2023-09-26T08:35:54.200Z,13.96
2023-09-26T08:36:54.240Z,14.06
2023-09-26T08:37:54.206Z,14.04
2023-09-26T08:38:54.217Z,14.10
2023-09-26T08:39:54.176Z,14.01
2023-09-26T08:40:54.182Z,14.21
2023-09-26T08:41:54.141Z,14.31
2023-09-26T08:42:54.197Z,14.32
2023-09-26T08:43:54.190Z,14.44
2023-09-26T08:44:54.110Z,14.39
2023-09-26T08:45:54.138Z,14.50
2023-09-26T08:46:54.216Z,14.49
2023-09-26T08:47:54.151Z,14.62
2023-09-26T08:48:54.117Z,14.64
2023-09-26T08:49:54.120Z,14.62
2023-09-26T08:50:54.151Z,14.60
2023-09-26T08:51:54.168Z,14.68
2023-09-26T08:52:54.057Z,14.80
2023-09-26T08:53:54.037Z,14.83
2023-09-26T08:54:54.064Z,14.93
2023-09-26T08:55:54.015Z,15.02
2023-09-26T08:56:54.039Z,15.03
2023-09-26T08:57:54.011Z,15.13
2023-09-26T08:58:54.474Z,15.06
2023-09-26T08:59:53.982Z,15.23
2023-09-26T09:00:54.018Z,15.21
2023-09-26T09:01:54.018Z,15.30
2023-09-26T09:02:53.986Z,15.15
2023-09-26T09:03:54.003Z,15.30
2023-09-26T09:04:53.963Z,15.35
2023-09-26T09:05:53.969Z,15.45
2023-09-26T09:06:53.975Z,15.46
2023-09-26T09:07:53.927Z,15.52
2023-09-26T09:08:53.966Z,15.42
2023-09-26T09:09:54.622Z,15.51
2023-09-26T09:10:53.900Z,15.59
2023-09-26T09:11:53.863Z,15.67
2023-09-26T09:12:53.892Z,15.81
2023-09-26T09:13:53.848Z,15.97
2023-09-26T09:14:53.879Z,16.06
2023-09-26T09:15:53.993Z,16.15
2023-09-26T09:16:53.875Z,16.30
2023-09-26T09:17:53.853Z,16.27
2023-09-26T09:18:54.014Z,16.30
2023-09-26T09:19:53.892Z,16.48
2023-09-26T09:20:53.773Z,16.60
2023-09-26T09:21:53.783Z,16.50
2023-09-26T09:22:53.765Z,16.63
2023-09-26T09:23:53.784Z,16.73
2023-09-26T09:24:53.768Z,16.83
2023-09-26T09:25:53.727Z,16.90
2023-09-26T09:26:53.717Z,16.88
2023-09-26T09:27:53.737Z,16.85
2023-09-26T09:28:53.917Z,17.00
2023-09-26T09:29:53.682Z,17.08
2023-09-26T09:30:53.689Z,17.14
2023-09-26T09:31:53.711Z,17.04
2023-09-26T09:32:53.944Z,16.93
2023-09-26T09:33:53.716Z,16.93
2023-09-26T09:34:53.636Z,17.04
2023-09-26T09:35:53.627Z,16.99
2023-09-26T09:36:53.669Z,16.86
2023-09-26T09:37:53.634Z,16.95
2023-09-26T09:38:53.860Z,16.80
2023-09-26T09:39:53.625Z,16.71
2023-09-26T09:40:53.584Z,16.74
2023-09-26T09:41:53.581Z,16.81
2023-09-26T09:42:53.594Z,16.95
2023-09-26T09:43:53.811Z,16.85
2023-09-26T09:44:53.548Z,16.88
2023-09-26T09:45:53.555Z,17.00
2023-09-26T09:46:53.602Z,16.88
2023-09-26T09:47:53.591Z,16.80
2023-09-26T09:48:53.786Z,16.81
2023-09-26T09:49:53.511Z,16.90
2023-09-26T09:50:53.478Z,17.00
2023-09-26T09:51:53.532Z,17.15
2023-09-26T09:52:53.487Z,17.32
2023-09-26T09:53:53.445Z,17.46
2023-09-26T09:54:53.438Z,17.51
2023-09-26T09:55:53.432Z,17.50
2023-09-26T09:56:53.448Z,17.38
2023-09-26T09:57:53.456Z,17.46
2023-09-26T09:58:53.552Z,17.35
2023-09-26T09:59:53.388Z,17.53
2023-09-26T10:00:53.425Z,17.36
2023-09-26T10:01:53.470Z,17.51
2023-09-26T10:02:53.415Z,17.69
2023-09-26T10:03:54.064Z,17.92
2023-09-26T10:04:53.376Z,17.95
2023-09-26T10:05:53.347Z,18.15
2023-09-26T10:06:53.349Z,18.09
2023-09-26T10:07:53.310Z,18.10
2023-09-26T10:08:53.374Z,18.18
2023-09-26T10:09:53.312Z,18.34
2023-09-26T10:10:53.293Z,18.54
2023-09-26T10:11:53.299Z,18.57
2023-09-26T10:13:19.642Z,18.67
2023-09-26T10:13:55.286Z,18.72
2023-09-26T10:14:53.316Z,18.83
2023-09-26T10:15:53.282Z,18.97
2023-09-26T10:16:53.265Z,19.10
2023-09-26T10:17:53.224Z,19.23
2023-09-26T10:18:53.783Z,19.25
2023-09-26T10:20:02.021Z,19.24
2023-09-26T10:20:55.260Z,19.23
2023-09-26T10:21:53.218Z,19.18
2023-09-26T10:22:53.196Z,19.23
2023-09-26T10:23:53.179Z,19.17
2023-09-26T10:24:53.226Z,19.25
2023-09-26T10:25:53.129Z,19.29
2023-09-26T10:26:53.133Z,19.43
2023-09-26T10:27:59.701Z,19.48
2023-09-26T10:28:55.196Z,19.48
2023-09-26T10:29:53.100Z,19.65
2023-09-26T10:30:53.130Z,19.70
2023-09-26T10:31:53.212Z,19.65
2023-09-26T10:32:53.110Z,19.65
2023-09-26T10:33:53.079Z,19.73
2023-09-26T10:34:54.734Z,19.87
2023-09-26T10:35:54.040Z,19.91
2023-09-26T10:36:53.029Z,19.79
2023-09-26T10:37:53.005Z,19.79
2023-09-26T10:38:53.022Z,19.90
2023-09-26T10:39:53.023Z,19.87
2023-09-26T10:40:52.979Z,19.84
2023-09-26T10:42:15.057Z,19.91
2023-09-26T10:43:59.206Z,20.10
2023-09-26T10:44:54.940Z,19.98
2023-09-26T10:45:53.028Z,20.15
2023-09-26T10:46:53.023Z,20.21
2023-09-26T10:48:09.563Z,20.24
2023-09-26T10:48:55.136Z,20.24
2023-09-26T10:49:52.889Z,20.34
2023-09-26T10:50:52.878Z,20.50
2023-09-26T10:51:52.886Z,20.46
2023-09-26T10:52:52.880Z,20.59
2023-09-26T10:53:52.844Z,20.65
2023-09-26T10:54:52.875Z,20.69
2023-09-26T10:55:52.845Z,20.91
2023-09-26T10:56:52.832Z,20.84
2023-09-26T10:57:53.044Z,21.02
2023-09-26T10:58:52.791Z,21.06
2023-09-26T10:59:52.789Z,21.11
2023-09-26T11:01:14.841Z,21.20
2023-09-26T11:01:53.863Z,21.21
2023-09-26T11:02:54.956Z,21.29
2023-09-26T11:03:52.881Z,21.35
2023-09-26T11:04:53.238Z,21.39
2023-09-26T11:06:54.122Z,21.51
2023-09-26T11:07:52.953Z,21.57
2023-09-26T11:08:52.799Z,21.59
2023-09-26T11:09:52.753Z,21.69
2023-09-26T11:10:52.712Z,21.78
2023-09-26T11:11:52.707Z,21.74
2023-09-26T11:12:52.828Z,21.81
2023-09-26T11:13:52.670Z,21.88
2023-09-26T11:14:53.640Z,21.85
2023-09-26T11:15:52.719Z,21.90
2023-09-26T11:16:53.955Z,21.85
2023-09-26T11:17:52.709Z,21.82
2023-09-26T11:18:52.611Z,21.64
2023-09-26T11:19:52.616Z,21.48
2023-09-26T11:21:02.642Z,21.44
2023-09-26T11:21:54.588Z,21.29
2023-09-26T11:22:52.607Z,21.45
2023-09-26T11:23:52.554Z,21.46
2023-09-26T11:24:52.568Z,21.57
2023-09-26T11:25:52.576Z,21.67
2023-09-26T11:26:53.529Z,21.85
2023-09-26T11:27:52.528Z,21.95
2023-09-26T11:28:52.514Z,21.97
2023-09-26T11:29:52.522Z,22.02
2023-09-26T11:30:52.480Z,21.99
2023-09-26T11:31:52.535Z,22.12
2023-09-26T11:32:52.547Z,22.13
2023-09-26T11:33:52.452Z,22.07
2023-09-26T11:34:52.465Z,22.09
2023-09-26T11:35:52.430Z,22.07
2023-09-26T11:36:52.448Z,22.23
2023-09-26T11:37:52.441Z,22.22
2023-09-26T11:38:52.425Z,22.04
2023-09-26T11:39:52.400Z,21.83
2023-09-26T11:40:52.459Z,22.01
2023-09-26T11:41:52.436Z,22.12
2023-09-26T11:42:52.379Z,22.19
2023-09-26T11:43:52.397Z,22.39
2023-09-26T11:44:52.347Z,22.39
2023-09-26T11:45:52.368Z,22.39
2023-09-26T11:46:52.342Z,22.54
2023-09-26T11:47:53.445Z,22.39
2023-09-26T11:48:52.338Z,22.50
2023-09-26T11:49:52.307Z,22.44
2023-09-26T11:50:52.298Z,22.39
2023-09-26T11:51:52.292Z,22.52
2023-09-26T11:52:52.283Z,22.56
2023-09-26T11:53:52.311Z,22.44
2023-09-26T11:54:52.257Z,22.52
2023-09-26T11:55:52.284Z,22.67
2023-09-26T11:56:52.237Z,22.65
2023-09-26T11:57:52.234Z,22.52
2023-09-26T11:58:52.286Z,22.44
2023-09-26T11:59:52.212Z,22.38
2023-09-26T12:00:52.188Z,22.50
2023-09-26T12:01:52.307Z,22.28
2023-09-26T12:02:52.261Z,22.19
2023-09-26T12:03:52.226Z,22.02
2023-09-26T12:04:52.222Z,21.99
2023-09-26T12:05:52.145Z,22.07
2023-09-26T12:06:52.139Z,22.16
2023-09-26T12:07:52.171Z,22.28
2023-09-26T12:08:52.122Z,22.43
2023-09-26T12:09:52.110Z,22.53
2023-09-26T12:10:52.100Z,22.64
2023-09-26T12:11:52.127Z,22.68
2023-09-26T12:12:52.108Z,22.59
2023-09-26T12:13:52.110Z,22.56
2023-09-26T12:14:52.050Z,22.60
2023-09-26T12:15:52.056Z,22.64
2023-09-26T12:16:52.429Z,22.47
2023-09-26T12:17:52.142Z,21.98
2023-09-26T12:18:52.011Z,21.97
2023-09-26T12:19:52.060Z,22.02
2023-09-26T12:20:51.988Z,21.92
2023-09-26T12:21:51.994Z,22.16
2023-09-26T12:22:52.000Z,22.17
2023-09-26T12:23:51.952Z,22.13
2023-09-26T12:24:51.951Z,22.25
2023-09-26T12:25:52.061Z,22.38
2023-09-26T12:26:51.950Z,22.43
2023-09-26T12:27:51.936Z,22.43
2023-09-26T12:28:51.960Z,22.56
2023-09-26T12:29:51.890Z,22.64
2023-09-26T12:30:51.901Z,22.74
2023-09-26T12:31:52.011Z,22.72
2023-09-26T12:32:51.979Z,22.93
2023-09-26T12:33:51.855Z,22.96
2023-09-26T12:34:51.877Z,22.97
2023-09-26T12:35:51.870Z,23.08
2023-09-26T12:36:51.832Z,23.08
2023-09-26T12:37:51.844Z,23.15
2023-09-26T12:38:51.817Z,23.26
2023-09-26T12:39:52.813Z,23.11
2023-09-26T12:40:51.860Z,23.11
2023-09-26T12:41:51.785Z,22.99
2023-09-26T12:42:51.774Z,23.07
2023-09-26T12:43:51.767Z,23.12
2023-09-26T12:44:51.792Z,23.08
2023-09-26T12:45:51.754Z,23.15
2023-09-26T12:46:51.749Z,23.15
2023-09-26T12:47:51.739Z,23.26
2023-09-26T12:48:51.705Z,23.26
2023-09-26T12:49:51.737Z,23.19
2023-09-26T12:50:51.747Z,23.14
2023-09-26T12:51:51.679Z,23.27
2023-09-26T12:52:51.686Z,23.39
2023-09-26T12:53:51.715Z,23.45
2023-09-26T12:54:51.676Z,23.55
2023-09-26T12:55:51.640Z,23.55
2023-09-26T12:56:51.626Z,23.58
2023-09-26T12:57:51.616Z,23.72
2023-09-26T12:58:51.654Z,23.70
2023-09-26T12:59:52.005Z,23.79
2023-09-26T13:00:52.581Z,23.71
2023-09-26T13:01:51.671Z,23.72
2023-09-26T13:02:51.637Z,23.77
2023-09-26T13:03:51.621Z,23.57
2023-09-26T13:04:52.575Z,23.60
2023-09-26T13:05:51.538Z,23.64
2023-09-26T13:06:51.537Z,23.79
2023-09-26T13:07:51.615Z,23.76